createdAt,value
2022-09-17T00:01:31.255Z,97489.06
2022-09-17T00:04:05.497Z,97449.81
2022-09-17T00:06:34.967Z,97482.97
2022-09-17T00:09:02.415Z,97470.56
2022-09-17T00:11:42.081Z,97453.00
2022-09-17T00:14:13.560Z,97472.22
2022-09-17T00:16:46.221Z,97470.81
2022-09-17T00:19:16.666Z,97462.56
2022-09-17T00:21:46.701Z,97472.13
2022-09-17T00:24:14.660Z,97475.72
2022-09-17T00:26:42.848Z,97475.41
2022-09-17T00:29:10.627Z,97424.16
2022-09-17T00:31:37.940Z,97442.53
2022-09-17T00:34:10.148Z,97465.56
2022-09-17T00:36:38.899Z,97470.81
2022-09-17T00:39:09.801Z,97422.56
2022-09-17T00:41:38.557Z,97450.81
2022-09-17T00:44:42.796Z,97451.59
2022-09-17T00:47:17.393Z,97451.63
2022-09-17T00:49:44.762Z,97434.91
2022-09-17T00:52:15.989Z,97446.16
2022-09-17T00:54:46.970Z,97440.16
2022-09-17T00:57:14.224Z,97453.06
2022-09-17T00:59:41.241Z,97441.81
2022-09-17T01:02:08.230Z,97454.16
2022-09-17T01:04:35.119Z,97467.63
2022-09-17T01:07:30.482Z,97458.81
2022-09-17T01:10:29.764Z,97462.09
2022-09-17T01:13:08.121Z,97457.75
2022-09-17T01:15:49.798Z,97458.06
2022-09-17T01:18:18.380Z,97453.41
2022-09-17T01:21:03.310Z,97449.88
2022-09-17T01:24:03.054Z,97441.91
2022-09-17T01:27:06.249Z,97440.81
2022-09-17T01:29:51.437Z,97449.59
2022-09-17T01:32:27.199Z,97450.16
2022-09-17T01:34:59.653Z,97450.47
2022-09-17T01:37:36.073Z,97429.59
2022-09-17T01:40:13.117Z,97447.47
2022-09-17T01:42:58.273Z,97436.75
2022-09-17T01:45:34.581Z,97438.13
2022-09-17T01:48:12.045Z,97424.41
2022-09-17T01:50:47.841Z,97423.59
2022-09-17T01:53:17.665Z,97432.94
2022-09-17T01:55:49.880Z,97424.97
2022-09-17T01:58:29.397Z,97408.47
2022-09-17T02:01:01.771Z,97427.97
2022-09-17T02:03:42.863Z,97411.53
2022-09-17T02:06:19.980Z,97421.13
2022-09-17T02:09:17.095Z,97414.25
2022-09-17T02:11:50.145Z,97392.28
2022-09-17T02:14:25.091Z,97400.00
2022-09-17T02:16:56.905Z,97406.00
2022-09-17T02:19:38.315Z,97406.28
2022-09-17T02:22:20.069Z,97406.28
2022-09-17T02:24:58.718Z,97407.94
2022-09-17T02:27:51.123Z,97409.31
2022-09-17T02:30:18.319Z,97401.91
2022-09-17T02:32:45.260Z,97396.66
2022-09-17T02:35:14.016Z,97405.72
2022-09-17T02:37:44.763Z,97418.31
2022-09-17T02:40:14.713Z,97385.41
2022-09-17T02:43:04.462Z,97409.28
2022-09-17T02:45:46.445Z,97411.75
2022-09-17T02:48:44.259Z,97405.97
2022-09-17T02:51:26.416Z,97396.94
2022-09-17T02:54:30.734Z,97391.44
2022-09-17T02:57:42.672Z,97385.34
2022-09-17T03:00:12.382Z,97400.13
2022-09-17T03:02:48.741Z,97380.91
2022-09-17T03:05:19.128Z,97378.72
2022-09-17T03:07:47.010Z,97374.34
2022-09-17T03:10:13.847Z,97364.72
2022-09-17T03:12:40.997Z,97365.00
2022-09-17T03:15:08.524Z,97377.94
2022-09-17T03:17:37.606Z,97370.50
2022-09-17T03:20:05.263Z,97361.16
2022-09-17T03:22:32.076Z,97337.59
2022-09-17T03:24:58.671Z,97357.91
2022-09-17T03:27:25.311Z,97342.22
2022-09-17T03:29:52.047Z,97337.56
2022-09-17T03:32:18.657Z,97351.84
2022-09-17T03:34:48.229Z,97352.66
2022-09-17T03:37:16.195Z,97356.47
2022-09-17T03:39:42.809Z,97352.06
2022-09-17T03:42:09.367Z,97353.47
2022-09-17T03:44:35.938Z,97337.56
2022-09-17T03:47:02.543Z,97326.84
2022-09-17T03:49:29.203Z,97319.13
2022-09-17T03:51:55.798Z,97305.44
2022-09-17T03:54:23.803Z,97324.91
2022-09-17T03:56:50.409Z,97303.47
2022-09-17T03:59:17.218Z,97316.69
2022-09-17T04:01:44.035Z,97301.06
2022-09-17T04:04:10.949Z,97296.16
2022-09-17T04:06:41.265Z,97322.19
2022-09-17T04:09:08.912Z,97304.06
2022-09-17T04:11:35.869Z,97288.69
2022-09-17T04:14:03.601Z,97278.28
2022-09-17T04:16:30.352Z,97313.34
2022-09-17T04:18:57.057Z,97313.34
2022-09-17T04:21:23.721Z,97285.94
2022-09-17T04:23:50.753Z,97315.84
2022-09-17T04:26:17.511Z,97305.19
2022-09-17T04:28:44.102Z,97303.81
2022-09-17T04:31:12.312Z,97298.63
2022-09-17T04:33:38.948Z,97273.97
2022-09-17T04:36:05.591Z,97270.09
2022-09-17T04:38:33.692Z,97273.41
2022-09-17T04:41:01.333Z,97297.00
2022-09-17T04:43:27.920Z,97303.88
2022-09-17T04:45:54.534Z,97300.31
2022-09-17T04:48:21.149Z,97313.50
2022-09-17T04:50:53.109Z,97303.66
2022-09-17T04:53:19.953Z,97300.38
2022-09-17T04:55:51.760Z,97326.75
2022-09-17T04:58:18.349Z,97320.16
2022-09-17T05:00:45.392Z,97314.41
2022-09-17T05:03:12.110Z,97310.28
2022-09-17T05:05:38.788Z,97306.72
2022-09-17T05:08:05.823Z,97317.69
2022-09-17T05:10:36.515Z,97304.53
2022-09-17T05:13:04.363Z,97306.72
2022-09-17T05:15:32.127Z,97333.88
2022-09-17T05:17:59.117Z,97316.00
2022-09-17T05:20:25.953Z,97324.50
2022-09-17T05:22:52.982Z,97313.53
2022-09-17T05:25:24.836Z,97335.47
2022-09-17T05:27:54.771Z,97301.47
2022-09-17T05:30:21.522Z,97340.09
2022-09-17T05:32:50.476Z,97333.94
2022-09-17T05:35:17.293Z,97305.03
2022-09-17T05:37:43.903Z,97299.13
2022-09-17T05:40:10.804Z,97304.22
2022-09-17T05:42:37.558Z,97306.00
2022-09-17T05:45:05.848Z,97315.41
2022-09-17T05:47:32.758Z,97311.03
2022-09-17T05:49:59.442Z,97303.38
2022-09-17T05:52:29.585Z,97296.03
2022-09-17T05:54:57.414Z,97316.44
2022-09-17T05:57:24.903Z,97316.97
2022-09-17T05:59:51.531Z,97313.84
2022-09-17T06:02:18.406Z,97321.16
2022-09-17T06:04:46.194Z,97303.41
2022-09-17T06:07:13.016Z,97350.03
2022-09-17T06:09:41.658Z,97326.25
2022-09-17T06:12:09.431Z,97322.31
2022-09-17T06:14:37.268Z,97350.69
2022-09-17T06:17:06.460Z,97356.16
2022-09-17T06:19:33.029Z,97355.75
2022-09-17T06:22:02.012Z,97329.09
2022-09-17T06:24:28.779Z,97331.78
2022-09-17T06:26:58.872Z,97327.41
2022-09-17T06:29:25.560Z,97342.53
2022-09-17T06:31:52.795Z,97306.44
2022-09-17T06:34:21.045Z,97351.31
2022-09-17T06:36:49.593Z,97328.94
2022-09-17T06:39:16.546Z,97332.75
2022-09-17T06:41:43.529Z,97368.22
2022-09-17T06:44:12.941Z,97367.97
2022-09-17T06:46:39.589Z,97356.66
2022-09-17T06:49:09.631Z,97357.31
2022-09-17T06:51:36.226Z,97370.81
2022-09-17T06:54:04.337Z,97348.59
2022-09-17T06:56:31.129Z,97359.16
2022-09-17T06:58:57.858Z,97352.34
2022-09-17T07:01:24.676Z,97373.75
2022-09-17T07:03:51.409Z,97352.59
2022-09-17T07:06:18.141Z,97372.84
2022-09-17T07:08:45.088Z,97388.44
2022-09-17T07:11:11.795Z,97356.56
2022-09-17T07:13:38.563Z,97371.13
2022-09-17T07:16:06.792Z,97375.75
2022-09-17T07:18:33.708Z,97376.25
2022-09-17T07:21:03.832Z,97384.41
2022-09-17T07:23:33.102Z,97389.03
2022-09-17T07:26:05.169Z,97386.66
2022-09-17T07:28:32.278Z,97393.56
2022-09-17T07:30:59.135Z,97387.63
2022-09-17T07:33:30.056Z,97376.28
2022-09-17T07:36:02.370Z,97396.47
2022-09-17T07:38:31.506Z,97389.34
2022-09-17T07:41:16.326Z,97392.44
2022-09-17T07:43:44.472Z,97393.19
2022-09-17T07:46:17.425Z,97392.06
2022-09-17T07:48:44.446Z,97356.81
2022-09-17T07:51:23.285Z,97363.06
2022-09-17T07:53:55.261Z,97365.53
2022-09-17T07:56:22.934Z,97372.56
2022-09-17T07:58:53.053Z,97355.88
2022-09-17T08:01:23.168Z,97332.75
2022-09-17T08:03:55.667Z,97351.34
2022-09-17T08:06:28.674Z,97353.47
2022-09-17T08:09:02.605Z,97378.09
2022-09-17T08:11:55.078Z,97367.13
2022-09-17T08:14:17.941Z,97351.25
2022-09-17T08:16:49.200Z,97339.19
2022-09-17T08:19:15.932Z,97346.25
2022-09-17T08:21:42.764Z,97342.03
2022-09-17T08:24:09.813Z,97336.91
2022-09-17T08:26:36.450Z,97352.53
2022-09-17T08:29:03.237Z,97346.50
2022-09-17T08:31:30.838Z,97337.03
2022-09-17T08:33:57.987Z,97331.28
2022-09-17T08:36:26.296Z,97349.56
2022-09-17T08:38:54.617Z,97354.94
2022-09-17T08:41:38.588Z,97323.84
2022-09-17T08:44:06.410Z,97349.13
2022-09-17T08:46:51.548Z,97312.47
2022-09-17T08:49:32.925Z,97328.34
2022-09-17T08:52:17.792Z,97337.41
2022-09-17T08:55:16.706Z,97326.88
2022-09-17T08:57:52.340Z,97331.88
2022-09-17T09:00:25.211Z,97320.09
2022-09-17T09:03:04.877Z,97317.47
2022-09-17T09:05:56.576Z,97329.59
2022-09-17T09:08:51.958Z,97320.59
2022-09-17T09:11:31.180Z,97322.38
2022-09-17T09:14:23.963Z,97332.47
2022-09-17T09:16:52.752Z,97329.41
2022-09-17T09:19:21.649Z,97337.28
2022-09-17T09:22:04.284Z,97335.31
2022-09-17T09:24:58.517Z,97340.44
2022-09-17T09:27:29.412Z,97329.50
2022-09-17T09:30:04.252Z,97313.97
2022-09-17T09:32:56.726Z,97313.31
2022-09-17T09:35:33.557Z,97309.56
2022-09-17T09:38:29.328Z,97305.94
2022-09-17T09:41:38.677Z,97296.09
2022-09-17T09:44:14.236Z,97287.41
2022-09-17T09:47:02.967Z,97270.63
2022-09-17T09:49:59.464Z,97264.25
2022-09-17T09:52:44.275Z,97261.56
2022-09-17T09:55:48.149Z,97266.53
2022-09-17T09:58:39.363Z,97252.81
2022-09-17T10:01:38.008Z,97254.94
2022-09-17T10:04:28.993Z,97269.94
2022-09-17T10:07:08.087Z,97265.28
2022-09-17T10:09:39.446Z,97230.38
2022-09-17T10:12:17.428Z,97258.78
2022-09-17T10:14:46.984Z,97257.91
2022-09-17T10:17:27.319Z,97253.59
2022-09-17T10:20:00.123Z,97247.84
2022-09-17T10:22:34.221Z,97247.66
2022-09-17T10:25:02.758Z,97262.47
2022-09-17T10:27:30.583Z,97260.50
2022-09-17T10:30:09.405Z,97251.19
2022-09-17T10:32:36.035Z,97248.97
2022-09-17T10:35:26.385Z,97249.13
2022-09-17T10:37:54.196Z,97203.56
2022-09-17T10:40:20.843Z,97232.97
2022-09-17T10:42:49.656Z,97231.81
2022-09-17T10:45:34.496Z,97231.78
2022-09-17T10:48:03.266Z,97229.88
2022-09-17T10:50:44.883Z,97221.19
2022-09-17T10:53:16.893Z,97226.59
2022-09-17T10:55:58.781Z,97224.41
2022-09-17T10:58:43.802Z,97226.06
2022-09-17T11:01:25.458Z,97210.94
2022-09-17T11:04:07.523Z,97209.81
2022-09-17T11:07:14.512Z,97195.19
2022-09-17T11:09:47.417Z,97195.19
2022-09-17T11:12:58.981Z,97207.06
2022-09-17T11:15:53.196Z,97178.88
2022-09-17T11:18:32.134Z,97216.00
2022-09-17T11:21:20.544Z,97221.25
2022-09-17T11:24:02.768Z,97212.91
2022-09-17T11:26:32.312Z,97182.31
2022-09-17T11:29:22.776Z,97173.81
2022-09-17T11:32:26.437Z,97162.75
2022-09-17T11:35:03.041Z,97173.41
2022-09-17T11:37:49.087Z,97199.38
2022-09-17T11:40:44.916Z,97203.03
2022-09-17T11:43:29.059Z,97211.56
2022-09-17T11:46:09.961Z,97216.03
2022-09-17T11:49:02.853Z,97244.84
2022-09-17T11:51:45.436Z,97285.03
2022-09-17T11:54:45.703Z,97282.91
2022-09-17T11:57:33.009Z,97305.94
2022-09-17T12:00:16.156Z,97358.53
2022-09-17T12:03:01.851Z,97405.44
2022-09-17T12:05:56.853Z,97404.41
2022-09-17T12:08:45.914Z,97425.13
2022-09-17T12:11:35.257Z,97431.22
2022-09-17T12:14:09.560Z,97421.78
2022-09-17T12:16:46.584Z,97325.97
2022-09-17T12:19:59.813Z,97294.06
2022-09-17T12:22:51.818Z,97274.41
2022-09-17T12:25:18.958Z,97205.88
2022-09-17T12:28:03.840Z,97233.88
2022-09-17T12:30:38.842Z,97242.22
2022-09-17T12:33:24.058Z,97235.38
2022-09-17T12:36:24.717Z,97219.63
2022-09-17T12:39:09.565Z,97212.19
2022-09-17T12:41:54.464Z,97200.03
2022-09-17T12:44:39.505Z,97179.34
2022-09-17T12:47:24.259Z,97135.03
2022-09-17T12:50:28.530Z,97102.91
2022-09-17T12:53:10.433Z,97106.31
2022-09-17T12:55:44.683Z,97111.09
2022-09-17T12:58:23.536Z,97118.44
2022-09-17T13:01:07.642Z,97120.00
2022-09-17T13:03:46.047Z,97086.13
2022-09-17T13:06:34.529Z,97113.69
2022-09-17T13:09:13.591Z,97099.75
2022-09-17T13:11:46.194Z,97093.28
2022-09-17T13:14:20.027Z,97092.09
2022-09-17T13:17:10.533Z,97071.84
2022-09-17T13:20:03.357Z,97091.56
2022-09-17T13:22:34.429Z,97095.81
2022-09-17T13:25:06.730Z,97094.34
2022-09-17T13:27:38.430Z,97062.41
2022-09-17T13:30:11.265Z,97082.44
2022-09-17T13:32:40.624Z,97075.28
2022-09-17T13:35:16.268Z,97079.41
2022-09-17T13:37:55.510Z,97077.78
2022-09-17T13:40:26.646Z,97066.97
2022-09-17T13:42:57.017Z,97070.13
2022-09-17T13:45:28.649Z,97090.56
2022-09-17T13:47:56.742Z,97091.72
2022-09-17T13:50:32.596Z,97108.41
2022-09-17T13:53:09.433Z,97097.56
2022-09-17T13:55:56.046Z,97107.91
2022-09-17T13:58:46.211Z,97090.19
2022-09-17T14:01:13.909Z,97070.47
2022-09-17T14:03:48.545Z,97087.41
2022-09-17T14:06:15.196Z,97084.78
2022-09-17T14:08:57.789Z,97076.59
2022-09-17T14:11:24.477Z,97069.53
2022-09-17T14:14:06.459Z,97058.16
2022-09-17T14:16:37.844Z,97047.44
2022-09-17T14:19:17.131Z,97052.75
2022-09-17T14:21:59.471Z,97055.53
2022-09-17T14:24:35.801Z,97048.75
2022-09-17T14:27:19.278Z,97055.19
2022-09-17T14:30:04.370Z,97042.41
2022-09-17T14:32:39.965Z,97042.09
2022-09-17T14:35:41.989Z,97033.94
2022-09-17T14:38:44.714Z,97041.50
2022-09-17T14:41:11.919Z,97039.06
2022-09-17T14:44:01.789Z,97042.03
2022-09-17T14:46:54.630Z,97063.47
2022-09-17T14:49:23.989Z,97057.47
2022-09-17T14:51:52.268Z,97082.28
2022-09-17T14:54:35.120Z,97067.34
2022-09-17T14:57:27.186Z,97079.13
2022-09-17T15:00:19.166Z,97081.47
2022-09-17T15:02:56.649Z,97082.00
2022-09-17T15:05:29.704Z,97077.63
2022-09-17T15:08:11.582Z,97090.38
2022-09-17T15:10:54.281Z,97097.22
2022-09-17T15:13:53.501Z,97102.22
2022-09-17T15:16:25.697Z,97085.56
2022-09-17T15:19:03.627Z,97096.59
2022-09-17T15:21:43.355Z,97105.59
2022-09-17T15:24:16.049Z,97121.56
2022-09-17T15:26:45.957Z,97103.97
2022-09-17T15:29:14.488Z,97095.91
2022-09-17T15:31:42.436Z,97084.63
2022-09-17T15:34:12.818Z,97093.41
2022-09-17T15:36:39.474Z,97113.31
2022-09-17T15:39:33.592Z,97125.38
2022-09-17T15:42:01.340Z,97111.25
2022-09-17T15:44:31.639Z,97092.63
2022-09-17T15:47:49.119Z,97124.50
2022-09-17T15:50:52.255Z,97122.81
2022-09-17T15:53:23.525Z,97127.50
2022-09-17T15:56:05.762Z,97119.97
2022-09-17T15:58:51.482Z,97091.25
2022-09-17T16:01:20.977Z,97078.53
2022-09-17T16:04:06.251Z,97077.94
2022-09-17T16:06:33.938Z,97078.78
2022-09-17T16:09:02.068Z,97066.38
2022-09-17T16:11:32.234Z,97058.97
2022-09-17T16:14:00.926Z,97048.69
2022-09-17T16:16:34.229Z,97039.47
2022-09-17T16:19:08.860Z,97033.63
2022-09-17T16:21:36.563Z,97054.78
2022-09-17T16:24:03.293Z,97042.81
2022-09-17T16:26:35.689Z,97120.41
2022-09-17T16:29:05.679Z,97220.34
2022-09-17T16:31:34.188Z,97278.84
2022-09-17T16:34:01.049Z,97076.97
2022-09-17T16:36:31.236Z,97157.03
2022-09-17T16:39:01.588Z,97170.78
2022-09-17T16:41:28.221Z,97177.34
2022-09-17T16:43:54.843Z,97192.84
2022-09-17T16:46:22.729Z,97250.06
2022-09-17T16:48:51.292Z,97224.00
2022-09-17T16:51:18.524Z,97277.47
2022-09-17T16:53:45.206Z,97277.34
2022-09-17T16:56:15.187Z,97382.47
2022-09-17T16:58:42.059Z,97359.69
2022-09-17T17:01:14.417Z,97398.03
2022-09-17T17:03:45.797Z,97381.22
2022-09-17T17:06:21.724Z,97342.84
2022-09-17T17:08:48.770Z,97276.00
2022-09-17T17:11:15.395Z,97205.94
2022-09-17T17:13:43.182Z,97169.34
2022-09-17T17:16:15.481Z,97152.59
2022-09-17T17:21:24.707Z,97097.28
2022-09-17T17:23:52.795Z,97122.38
2022-09-17T17:29:00.090Z,97216.28
2022-09-17T17:31:26.840Z,97235.72
2022-09-17T17:33:53.533Z,97247.00
2022-09-17T17:36:21.492Z,97260.19
2022-09-17T17:38:48.419Z,97190.41
2022-09-17T17:41:22.812Z,97218.16
2022-09-17T17:43:53.167Z,97210.53
2022-09-17T17:46:28.500Z,97205.50
2022-09-17T17:48:55.202Z,97229.50
2022-09-17T17:51:25.854Z,97220.03
2022-09-17T17:53:53.657Z,97192.13
2022-09-17T17:56:23.234Z,97199.56
2022-09-17T17:59:00.848Z,97234.88
2022-09-17T18:01:29.842Z,97263.66
2022-09-17T18:03:58.721Z,97217.28
2022-09-17T18:06:27.930Z,97258.97
2022-09-17T18:08:55.207Z,97271.19
2022-09-17T18:11:22.664Z,97279.63
2022-09-17T18:13:57.480Z,97252.25
2022-09-17T18:16:24.495Z,97249.59
2022-09-17T18:18:51.155Z,97218.06
2022-09-17T18:21:22.961Z,97223.38
2022-09-17T18:24:01.069Z,97248.03
2022-09-17T18:26:28.523Z,97226.34
2022-09-17T18:28:55.679Z,97197.56
2022-09-17T18:31:28.407Z,97244.84
2022-09-17T18:34:22.656Z,97314.66
2022-09-17T18:36:51.333Z,97306.03
2022-09-17T18:39:57.031Z,97316.97
2022-09-17T18:42:08.480Z,97300.84
2022-09-17T18:44:35.344Z,97306.28
2022-09-17T18:47:02.142Z,97346.69
2022-09-17T18:49:28.855Z,97371.88
2022-09-17T18:51:55.491Z,97351.13
2022-09-17T18:54:22.278Z,97323.91
2022-09-17T18:56:49.333Z,97293.53
2022-09-17T18:59:16.033Z,97285.81
2022-09-17T19:01:44.364Z,97266.81
2022-09-17T19:04:11.347Z,97297.00
2022-09-17T19:06:38.575Z,97320.28
2022-09-17T19:09:05.702Z,97312.91
2022-09-17T19:11:35.883Z,97333.84
2022-09-17T19:14:05.732Z,97304.38
2022-09-17T19:16:32.574Z,97234.03
2022-09-17T19:19:00.848Z,97194.34
2022-09-17T19:21:27.551Z,97185.81
2022-09-17T19:23:54.327Z,97221.72
2022-09-17T19:26:25.268Z,97207.59
2022-09-17T19:28:58.040Z,97191.72
2022-09-17T19:31:24.984Z,97180.44
2022-09-17T19:33:55.447Z,97202.94
2022-09-17T19:36:22.397Z,97141.94
2022-09-17T19:38:50.310Z,97102.00
2022-09-17T19:41:20.137Z,97074.41
2022-09-17T19:43:54.494Z,97128.34
2022-09-17T19:46:26.220Z,97091.38
2022-09-17T19:48:55.643Z,97105.63
2022-09-17T19:51:25.363Z,97165.34
2022-09-17T19:53:52.792Z,97153.22
2022-09-17T19:56:21.905Z,97134.63
2022-09-17T19:58:48.666Z,97133.50
2022-09-17T20:01:16.040Z,97179.03
2022-09-17T20:03:44.225Z,97177.91
2022-09-17T20:06:13.342Z,97200.38
2022-09-17T20:08:52.147Z,97226.34
2022-09-17T20:11:21.831Z,97217.31
2022-09-17T20:13:48.559Z,97178.59
2022-09-17T20:16:18.838Z,97194.97
2022-09-17T20:18:50.727Z,97180.75
2022-09-17T20:21:31.379Z,97209.03
2022-09-17T20:23:58.640Z,97195.91
2022-09-17T20:26:27.595Z,97173.97
2022-09-17T20:29:03.458Z,97187.72
2022-09-17T20:31:32.344Z,97176.44
2022-09-17T20:34:01.849Z,97197.56
2022-09-17T20:36:31.120Z,97158.06
2022-09-17T20:39:18.208Z,97133.38
2022-09-17T20:41:44.493Z,97165.25
2022-09-17T20:44:12.172Z,97160.28
2022-09-17T20:46:40.435Z,97162.47
2022-09-17T20:49:08.730Z,97173.97
2022-09-17T20:51:36.980Z,97147.69
2022-09-17T20:54:05.507Z,97146.09
2022-09-17T20:56:35.089Z,97175.44
2022-09-17T20:59:17.448Z,97144.75
2022-09-17T21:01:49.976Z,97090.72
2022-09-17T21:04:36.723Z,97134.06
2022-09-17T21:07:07.583Z,97121.13
2022-09-17T21:09:34.713Z,97153.72
2022-09-17T21:12:01.410Z,97149.94
2022-09-17T21:14:28.033Z,97150.47
2022-09-17T21:16:54.695Z,97115.34
2022-09-17T21:19:24.334Z,97167.44
2022-09-17T21:21:54.634Z,97137.28
2022-09-17T21:24:21.289Z,97156.72
2022-09-17T21:26:48.450Z,97164.13
2022-09-17T21:29:20.814Z,97143.00
2022-09-17T21:31:48.904Z,97144.63
2022-09-17T21:34:18.357Z,97134.38
2022-09-17T21:36:44.995Z,97123.38
2022-09-17T21:39:14.747Z,97103.63
2022-09-17T21:41:43.069Z,97112.13
2022-09-17T21:44:12.228Z,97122.81
2022-09-17T21:46:42.656Z,97111.59
2022-09-17T21:49:12.523Z,97099.50
2022-09-17T21:51:42.159Z,97115.69
2022-09-17T21:54:11.610Z,97120.84
2022-09-17T21:56:39.705Z,97083.72
2022-09-17T21:59:08.778Z,97113.06
2022-09-17T22:01:47.381Z,97124.06
2022-09-17T22:04:19.380Z,97106.00
2022-09-17T22:06:48.894Z,97110.38
2022-09-17T22:09:19.303Z,97107.84
2022-09-17T22:11:46.143Z,97061.81
2022-09-17T22:14:21.937Z,97113.34
2022-09-17T22:16:54.629Z,97097.50
2022-09-17T22:19:23.600Z,97090.59
2022-09-17T22:21:53.257Z,97081.56
2022-09-17T22:24:21.658Z,97073.66
2022-09-17T22:26:55.950Z,97033.31
2022-09-17T22:29:24.485Z,97081.13
2022-09-17T22:31:51.246Z,97057.53
2022-09-17T22:34:20.382Z,97094.53
2022-09-17T22:36:47.396Z,97067.63
2022-09-17T22:39:14.090Z,97046.22
2022-09-17T22:41:45.358Z,97052.50
2022-09-17T22:44:23.876Z,97064.91
2022-09-17T22:46:53.541Z,97076.22
2022-09-17T22:49:21.384Z,97068.31
2022-09-17T22:51:48.231Z,97088.19
2022-09-17T22:54:17.187Z,97090.34
2022-09-17T22:56:47.173Z,97092.22
2022-09-17T22:59:14.019Z,97055.22
2022-09-17T23:01:42.276Z,97081.31
2022-09-17T23:04:09.789Z,97073.97
2022-09-17T23:06:39.003Z,97071.22
2022-09-17T23:09:13.053Z,97092.72
2022-09-17T23:11:40.553Z,97059.88
2022-09-17T23:14:10.086Z,97045.56
2022-09-17T23:16:47.178Z,97069.22
2022-09-17T23:19:15.946Z,97059.88
2022-09-17T23:21:44.645Z,97079.06
2022-09-17T23:24:18.707Z,97073.34
2022-09-17T23:26:45.378Z,97048.41
2022-09-17T23:29:12.054Z,97047.06
2022-09-17T23:34:19.984Z,97040.28
2022-09-17T23:36:47.538Z,97013.91
2022-09-17T23:39:14.268Z,97043.47
2022-09-17T23:41:43.506Z,97037.78
2022-09-17T23:44:15.721Z,97001.63
2022-09-17T23:46:46.575Z,97045.44
2022-09-17T23:49:14.457Z,97035.84
2022-09-17T23:51:41.379Z,97017.63
2022-09-17T23:54:08.081Z,97042.81
2022-09-17T23:56:35.439Z,97022.19
2022-09-17T23:59:02.844Z,97010.53
